Choctaw — WDF4875 — position and weather

sailwx.info

Track history (hours):
 
Tides and Currents Weather Stations Pressure Air Temp Water Temp Dewpoint Dewpoint Depression Visibility Wind Speed Wind Dir Waves Ship Positions

Choctaw

Owner: Canal Barge Company, Inc., Belle Chasse, LA. More information available from US FCC via Universal Licensing System and Coast Guard Vessel Documentation Center.

Last reported at 2018-May-24 21:26 UTC. Time now 2018-May-24 21:43 UTC.
Position N 29°50' W 092°19'.

Length 25 m.

Type: Towing. MMSI: 367456760.

Date/timePositionNaut miles runAvg speedWind from/ knotsBaromVisibWave heightAir tempDewpointWater temp
2018-May-24 21:26N 29°50' W 092°19'2 5.0
2018-May-24 21:00N 29°51' W 092°21'38 5.2
2018-May-24 13:45N 29°56' W 093°05'15 3.2
2018-May-24 08:59N 30°06' W 093°18'0 0.0
2018-May-24 08:29N 30°06' W 093°18'0 0.0
2018-May-24 07:59N 30°06' W 093°18'0 0.0
2018-May-24 07:29N 30°06' W 093°18'0 0.0
2018-May-24 06:59N 30°06' W 093°18'0 0.0
2018-May-24 06:29N 30°06' W 093°18'0 0.0
2018-May-24 05:59N 30°06' W 093°18'0 0.1
2018-May-24 05:29N 30°06' W 093°18'0 0.4
2018-May-24 04:59N 30°06' W 093°18'1 1.1
2018-May-24 04:28N 30°06' W 093°19'0 0.0
2018-May-24 03:58N 30°06' W 093°19'0 0.0
2018-May-24 03:28N 30°06' W 093°19'0 0.0
2018-May-24 02:58N 30°06' W 093°19'0 0.0
2018-May-24 02:28N 30°06' W 093°19'0 0.1
2018-May-24 01:55N 30°06' W 093°19'0 0.0
2018-May-24 01:28N 30°06' W 093°19'0 0.0
2018-May-24 00:58N 30°06' W 093°19'0 0.0
2018-May-24 00:28N 30°06' W 093°19'0 0.0
2018-May-23 23:58N 30°06' W 093°19'0 0.0
2018-May-23 23:28N 30°06' W 093°19'0 0.1
2018-May-23 22:58N 30°06' W 093°19'0 0.0
2018-May-23 22:28N 30°06' W 093°19'0 0.0
2018-May-23 21:58N 30°06' W 093°19'0 0.0
2018-May-23 21:28N 30°06' W 093°19'0 0.0
2018-May-23 20:58N 30°06' W 093°19'0 0.0
2018-May-23 20:28N 30°06' W 093°19'0 0.1
2018-May-23 19:58N 30°06' W 093°19'0 0.1
2018-May-23 19:31N 30°06' W 093°19'0 0.1
2018-May-23 19:01N 30°06' W 093°19'0 0.2
2018-May-23 18:31N 30°06' W 093°19'0 0.1
2018-May-23 18:00N 30°06' W 093°19'0 0.1
2018-May-23 17:30N 30°06' W 093°19'0 0.0
2018-May-23 17:00N 30°06' W 093°19'0 0.1
2018-May-23 16:30N 30°06' W 093°19'0 0.1
2018-May-23 16:00N 30°06' W 093°19'0 0.1
2018-May-23 15:30N 30°06' W 093°19'0 0.1
2018-May-23 15:00N 30°06' W 093°19'0 0.2
2018-May-23 14:27N 30°06' W 093°19'2 4.2
2018-May-23 13:58N 30°04' W 093°21'0 0.1
2018-May-23 13:28N 30°04' W 093°20'0 0.0
2018-May-23 12:55N 30°04' W 093°20'0 0.0
2018-May-23 12:27N 30°04' W 093°20'1 2.0
2018-May-23 12:00N 30°05' W 093°20'0 0.0
2018-May-23 11:30N 30°05' W 093°20'0 0.0
2018-May-23 11:00N 30°05' W 093°20'0 0.0
2018-May-23 10:30N 30°05' W 093°20'0 0.0
2018-May-23 10:00N 30°05' W 093°20'0 0.0
2018-May-23 09:30N 30°05' W 093°20'0 0.0
2018-May-23 09:00N 30°05' W 093°20'0 0.4
2018-May-23 08:30N 30°05' W 093°20'1 1.7
2018-May-23 08:01N 30°04' W 093°20'1 2.7
2018-May-23 07:30N 30°05' W 093°20'1 2.3
2018-May-23 06:58N 30°06' W 093°19'0 0.1
2018-May-23 06:28N 30°06' W 093°19'0 0.0
2018-May-23 05:58N 30°06' W 093°19'0 0.0
2018-May-23 05:28N 30°06' W 093°19'0 0.0
2018-May-23 04:58N 30°06' W 093°19'0 0.0
2018-May-23 04:28N 30°06' W 093°19'0 0.0
2018-May-23 03:58N 30°06' W 093°19'0 0.0
2018-May-23 03:28N 30°06' W 093°19'0 0.0
2018-May-23 02:58N 30°06' W 093°19'0 0.0
2018-May-23 02:28N 30°06' W 093°19'0 0.0
2018-May-23 01:58N 30°06' W 093°19'0 0.0
2018-May-23 01:28N 30°06' W 093°19'0 0.1
2018-May-23 00:58N 30°06' W 093°19'0 0.1
2018-May-23 00:28N 30°06' W 093°19'0 0.0
2018-May-22 23:58N 30°06' W 093°19'0 0.0
2018-May-22 23:28N 30°06' W 093°19'0 0.0
2018-May-22 22:58N 30°06' W 093°19'0 0.0
2018-May-22 22:28N 30°06' W 093°19'0 0.1
2018-May-22 21:58N 30°06' W 093°19'0 0.0
2018-May-22 21:28N 30°06' W 093°19'0 0.0
2018-May-22 20:58N 30°06' W 093°19'0 0.0
2018-May-22 20:28N 30°06' W 093°19'0 0.0
2018-May-22 19:58N 30°06' W 093°19'0 0.0
2018-May-22 19:28N 30°06' W 093°19'0 0.0
2018-May-22 18:55N 30°06' W 093°19'0 0.0
2018-May-22 18:28N 30°06' W 093°19'0 0.0
2018-May-22 17:58N 30°06' W 093°19'0 0.0
2018-May-22 17:28N 30°06' W 093°19'0 0.0
2018-May-22 16:58N 30°06' W 093°19'0 0.1
2018-May-22 16:28N 30°06' W 093°19'0 0.0
2018-May-22 15:58N 30°06' W 093°19'0 0.0
2018-May-22 15:28N 30°06' W 093°19'0 0.0
2018-May-22 14:58N 30°06' W 093°19'0 0.0
2018-May-22 14:28N 30°06' W 093°19'0 0.0
2018-May-22 13:58N 30°06' W 093°19'1 1.9
2018-May-22 13:31N 30°06' W 093°19'3 5.1
2018-May-22 13:01N 30°04' W 093°21'2 3.5
2018-May-22 12:30N 30°04' W 093°23'2 4.6
2018-May-22 12:00N 30°04' W 093°26'3 5.6
2018-May-22 11:31N 30°04' W 093°29'3 5.7
2018-May-22 11:00N 30°04' W 093°32'2 4.4
2018-May-22 10:30N 30°04' W 093°35'3 5.3
2018-May-22 10:00N 30°04' W 093°38'2 3.9
2018-May-22 09:30N 30°03' W 093°40'3 5.5
2018-May-22 09:00N 30°03' W 093°43'3 5.9
2018-May-22 08:30N 30°01' W 093°45'3 5.7
2018-May-22 08:00N 29°59' W 093°48'3 5.8
2018-May-22 07:29N 29°58' W 093°51'3 6.5
2018-May-22 07:00N 29°55' W 093°53'3 6.1
2018-May-22 06:30N 29°53' W 093°55'3 6.0
2018-May-22 06:00N 29°50' W 093°57'3 5.7
2018-May-22 05:30N 29°49' W 093°60'3 5.7
2018-May-22 05:01N 29°47' W 094°02'3 6.0
2018-May-22 04:31N 29°45' W 094°05'3 5.6
2018-May-22 03:59N 29°43' W 094°07'3 5.4
2018-May-22 03:30N 29°41' W 094°10'2 3.3
2018-May-22 03:00N 29°41' W 094°12'3 6.0
2018-May-22 02:30N 29°40' W 094°15'3 6.0
2018-May-22 01:57N 29°38' W 094°18'3 6.0
2018-May-22 01:29N 29°37' W 094°21'3 5.5
2018-May-22 00:53N 29°36' W 094°25'20 5.5
2018-May-21 21:17N 29°25' W 094°44'2 5.6
2018-May-21 20:56N 29°24' W 094°45'2 5.7
2018-May-21 20:30N 29°22' W 094°48'3 5.0
2018-May-21 20:00N 29°24' W 094°49'7 7.2
2018-May-21 19:05N 29°30' W 094°52'0 7.2
2018-May-21 19:01N 29°31' W 094°53'4 7.1
2018-May-21 18:30N 29°34' W 094°55'4 7.4
2018-May-21 18:00N 29°37' W 094°57'4 7.7
2018-May-21 17:30N 29°40' W 094°59'5 6.7
2018-May-21 16:44N 29°44' W 095°03'2 0.0
2018-May-20 02:33N 29°43' W 095°01'1 6.6
2018-May-20 02:28N 29°42' W 095°01'4 6.8
2018-May-20 01:57N 29°40' W 094°58'3 7.4
2018-May-20 01:30N 29°36' W 094°57'4 7.7
2018-May-20 01:00N 29°33' W 094°55'25 3.8
2018-May-19 18:19N 29°34' W 094°25'2 4.7
2018-May-19 17:54N 29°36' W 094°24'2 2.3
2018-May-19 16:54N 29°36' W 094°22'2 5.3
2018-May-19 16:29N 29°37' W 094°20'2 5.0
2018-May-19 16:00N 29°38' W 094°17'3 5.2
2018-May-19 15:30N 29°40' W 094°15'3 5.5
2018-May-19 15:00N 29°41' W 094°12'2 4.7
2018-May-19 14:30N 29°42' W 094°09'3 5.4
2018-May-19 14:00N 29°43' W 094°07'2 4.7
2018-May-19 13:30N 29°45' W 094°05'3 6.4
2018-May-19 13:00N 29°47' W 094°02'3 6.1
2018-May-19 12:30N 29°49' W 093°59'1 1.6
2018-May-19 11:59N 29°49' W 093°58'0 0.0
2018-May-19 11:29N 29°49' W 093°58'0 0.1
2018-May-19 10:59N 29°49' W 093°58'0 0.1
2018-May-19 10:29N 29°49' W 093°58'0 0.1
2018-May-19 09:59N 29°49' W 093°58'0 0.8
2018-May-19 09:30N 29°49' W 093°58'3 6.3
2018-May-19 09:00N 29°52' W 093°56'4 7.1
2018-May-19 08:30N 29°55' W 093°53'4 7.1
2018-May-19 08:00N 29°58' W 093°51'3 5.2
2018-May-19 07:30N 29°59' W 093°49'3 6.3
2018-May-19 07:00N 30°01' W 093°46'3 5.7
2018-May-19 06:26N 30°03' W 093°43'3 5.5
2018-May-19 05:58N 30°04' W 093°40'5 5.0
2018-May-19 04:53N 30°04' W 093°34'2 4.6
2018-May-19 04:30N 30°04' W 093°32'2 4.6
2018-May-19 03:59N 30°04' W 093°29'2 4.2
2018-May-19 03:30N 30°04' W 093°27'2 4.7
2018-May-19 03:00N 30°04' W 093°24'2 4.8
2018-May-19 02:30N 30°04' W 093°21'2 4.2
2018-May-19 02:00N 30°05' W 093°20'1 2.3
2018-May-19 01:30N 30°06' W 093°19'1 2.7
2018-May-19 01:00N 30°05' W 093°18'1 1.9
2018-May-19 00:30N 30°05' W 093°17'0 0.6
2018-May-19 00:01N 30°05' W 093°16'1 2.3
2018-May-18 23:30N 30°04' W 093°16'2 3.9
2018-May-18 23:00N 30°02' W 093°15'2 3.9
2018-May-18 22:30N 30°00' W 093°14'2 4.5
2018-May-18 21:58N 29°58' W 093°12'2 4.5
2018-May-18 21:30N 29°57' W 093°10'2 4.2
2018-May-18 21:00N 29°56' W 093°08'2 4.4
2018-May-18 20:30N 29°56' W 093°05'45 4.4
2018-May-18 10:20N 29°48' W 092°14'2 4.2
2018-May-18 09:52N 29°47' W 092°12'1 0.7
2018-May-18 08:08N 29°47' W 092°11'0 0.0
2018-May-18 07:56N 29°47' W 092°11'1 0.5
2018-May-18 06:54N 29°47' W 092°10'2 3.8
2018-May-18 06:30N 29°47' W 092°09'8 4.9
2018-May-18 04:58N 29°50' W 092°01'63 4.0
2018-May-17 13:17N 29°32' W 090°50'1 5.2
2018-May-17 13:00N 29°32' W 090°49'2 4.8
2018-May-17 12:30N 29°32' W 090°46'2 4.4
2018-May-17 12:00N 29°34' W 090°44'2 3.3
2018-May-17 11:30N 29°35' W 090°43'2 3.8
2018-May-17 11:00N 29°37' W 090°42'2 4.3
2018-May-17 10:29N 29°36' W 090°40'2 4.5
2018-May-17 09:59N 29°35' W 090°38'2 3.9
2018-May-17 09:30N 29°35' W 090°35'2 4.5
2018-May-17 08:59N 29°34' W 090°33'6 4.8
2018-May-17 07:45N 29°33' W 090°26'1 4.8
2018-May-17 07:28N 29°33' W 090°25'2 3.4
2018-May-17 06:49N 29°35' W 090°23'  
Track history (hours):
 
Tides and Currents Weather Stations Pressure Air Temp Water Temp Dewpoint Dewpoint Depression Visibility Wind Speed Wind Dir Waves Ship Positions

Choctaw

Owner: Canal Barge Company, Inc., Belle Chasse, LA. More information available from US FCC via Universal Licensing System and Coast Guard Vessel Documentation Center.

Last reported at 2018-May-24 21:26 UTC. Time now 2018-May-24 21:43 UTC.
Position N 29°50' W 092°19'.

Length 25 m.

Type: Towing. MMSI: 367456760.

Date/timePositionNaut miles runAvg speedWind from/ knotsBaromVisibWave heightAir tempDewpointWater temp
2018-May-24 21:26N 29°50' W 092°19'2 5.0
2018-May-24 21:00N 29°51' W 092°21'38 5.2
2018-May-24 13:45N 29°56' W 093°05'15 3.2
2018-May-24 08:59N 30°06' W 093°18'0 0.0
2018-May-24 08:29N 30°06' W 093°18'0 0.0
2018-May-24 07:59N 30°06' W 093°18'0 0.0
2018-May-24 07:29N 30°06' W 093°18'0 0.0
2018-May-24 06:59N 30°06' W 093°18'0 0.0
2018-May-24 06:29N 30°06' W 093°18'0 0.0
2018-May-24 05:59N 30°06' W 093°18'0 0.1
2018-May-24 05:29N 30°06' W 093°18'0 0.4
2018-May-24 04:59N 30°06' W 093°18'1 1.1
2018-May-24 04:28N 30°06' W 093°19'0 0.0
2018-May-24 03:58N 30°06' W 093°19'0 0.0
2018-May-24 03:28N 30°06' W 093°19'0 0.0
2018-May-24 02:58N 30°06' W 093°19'0 0.0
2018-May-24 02:28N 30°06' W 093°19'0 0.1
2018-May-24 01:55N 30°06' W 093°19'0 0.0
2018-May-24 01:28N 30°06' W 093°19'0 0.0
2018-May-24 00:58N 30°06' W 093°19'0 0.0
2018-May-24 00:28N 30°06' W 093°19'0 0.0
2018-May-23 23:58N 30°06' W 093°19'0 0.0
2018-May-23 23:28N 30°06' W 093°19'0 0.1
2018-May-23 22:58N 30°06' W 093°19'0 0.0
2018-May-23 22:28N 30°06' W 093°19'0 0.0
2018-May-23 21:58N 30°06' W 093°19'0 0.0
2018-May-23 21:28N 30°06' W 093°19'0 0.0
2018-May-23 20:58N 30°06' W 093°19'0 0.0
2018-May-23 20:28N 30°06' W 093°19'0 0.1
2018-May-23 19:58N 30°06' W 093°19'0 0.1
2018-May-23 19:31N 30°06' W 093°19'0 0.1
2018-May-23 19:01N 30°06' W 093°19'0 0.2
2018-May-23 18:31N 30°06' W 093°19'0 0.1
2018-May-23 18:00N 30°06' W 093°19'0 0.1
2018-May-23 17:30N 30°06' W 093°19'0 0.0
2018-May-23 17:00N 30°06' W 093°19'0 0.1
2018-May-23 16:30N 30°06' W 093°19'0 0.1
2018-May-23 16:00N 30°06' W 093°19'0 0.1
2018-May-23 15:30N 30°06' W 093°19'0 0.1
2018-May-23 15:00N 30°06' W 093°19'0 0.2
2018-May-23 14:27N 30°06' W 093°19'2 4.2
2018-May-23 13:58N 30°04' W 093°21'0 0.1
2018-May-23 13:28N 30°04' W 093°20'0 0.0
2018-May-23 12:55N 30°04' W 093°20'0 0.0
2018-May-23 12:27N 30°04' W 093°20'1 2.0
2018-May-23 12:00N 30°05' W 093°20'0 0.0
2018-May-23 11:30N 30°05' W 093°20'0 0.0
2018-May-23 11:00N 30°05' W 093°20'0 0.0
2018-May-23 10:30N 30°05' W 093°20'0 0.0
2018-May-23 10:00N 30°05' W 093°20'0 0.0
2018-May-23 09:30N 30°05' W 093°20'0 0.0
2018-May-23 09:00N 30°05' W 093°20'0 0.4
2018-May-23 08:30N 30°05' W 093°20'1 1.7
2018-May-23 08:01N 30°04' W 093°20'1 2.7
2018-May-23 07:30N 30°05' W 093°20'1 2.3
2018-May-23 06:58N 30°06' W 093°19'0 0.1
2018-May-23 06:28N 30°06' W 093°19'0 0.0
2018-May-23 05:58N 30°06' W 093°19'0 0.0
2018-May-23 05:28N 30°06' W 093°19'0 0.0
2018-May-23 04:58N 30°06' W 093°19'0 0.0
2018-May-23 04:28N 30°06' W 093°19'0 0.0
2018-May-23 03:58N 30°06' W 093°19'0 0.0
2018-May-23 03:28N 30°06' W 093°19'0 0.0
2018-May-23 02:58N 30°06' W 093°19'0 0.0
2018-May-23 02:28N 30°06' W 093°19'0 0.0
2018-May-23 01:58N 30°06' W 093°19'0 0.0
2018-May-23 01:28N 30°06' W 093°19'0 0.1
2018-May-23 00:58N 30°06' W 093°19'0 0.1
2018-May-23 00:28N 30°06' W 093°19'0 0.0
2018-May-22 23:58N 30°06' W 093°19'0 0.0
2018-May-22 23:28N 30°06' W 093°19'0 0.0
2018-May-22 22:58N 30°06' W 093°19'0 0.0
2018-May-22 22:28N 30°06' W 093°19'0 0.1
2018-May-22 21:58N 30°06' W 093°19'0 0.0
2018-May-22 21:28N 30°06' W 093°19'0 0.0
2018-May-22 20:58N 30°06' W 093°19'0 0.0
2018-May-22 20:28N 30°06' W 093°19'0 0.0
2018-May-22 19:58N 30°06' W 093°19'0 0.0
2018-May-22 19:28N 30°06' W 093°19'0 0.0
2018-May-22 18:55N 30°06' W 093°19'0 0.0
2018-May-22 18:28N 30°06' W 093°19'0 0.0
2018-May-22 17:58N 30°06' W 093°19'0 0.0
2018-May-22 17:28N 30°06' W 093°19'0 0.0
2018-May-22 16:58N 30°06' W 093°19'0 0.1
2018-May-22 16:28N 30°06' W 093°19'0 0.0
2018-May-22 15:58N 30°06' W 093°19'0 0.0
2018-May-22 15:28N 30°06' W 093°19'0 0.0
2018-May-22 14:58N 30°06' W 093°19'0 0.0
2018-May-22 14:28N 30°06' W 093°19'0 0.0
2018-May-22 13:58N 30°06' W 093°19'1 1.9
2018-May-22 13:31N 30°06' W 093°19'3 5.1
2018-May-22 13:01N 30°04' W 093°21'2 3.5
2018-May-22 12:30N 30°04' W 093°23'2 4.6
2018-May-22 12:00N 30°04' W 093°26'3 5.6
2018-May-22 11:31N 30°04' W 093°29'3 5.7
2018-May-22 11:00N 30°04' W 093°32'2 4.4
2018-May-22 10:30N 30°04' W 093°35'3 5.3
2018-May-22 10:00N 30°04' W 093°38'2 3.9
2018-May-22 09:30N 30°03' W 093°40'3 5.5
2018-May-22 09:00N 30°03' W 093°43'3 5.9
2018-May-22 08:30N 30°01' W 093°45'3 5.7
2018-May-22 08:00N 29°59' W 093°48'3 5.8
2018-May-22 07:29N 29°58' W 093°51'3 6.5
2018-May-22 07:00N 29°55' W 093°53'3 6.1
2018-May-22 06:30N 29°53' W 093°55'3 6.0
2018-May-22 06:00N 29°50' W 093°57'3 5.7
2018-May-22 05:30N 29°49' W 093°60'3 5.7
2018-May-22 05:01N 29°47' W 094°02'3 6.0
2018-May-22 04:31N 29°45' W 094°05'3 5.6
2018-May-22 03:59N 29°43' W 094°07'3 5.4
2018-May-22 03:30N 29°41' W 094°10'2 3.3
2018-May-22 03:00N 29°41' W 094°12'3 6.0
2018-May-22 02:30N 29°40' W 094°15'3 6.0
2018-May-22 01:57N 29°38' W 094°18'3 6.0
2018-May-22 01:29N 29°37' W 094°21'3 5.5
2018-May-22 00:53N 29°36' W 094°25'20 5.5
2018-May-21 21:17N 29°25' W 094°44'2 5.6
2018-May-21 20:56N 29°24' W 094°45'2 5.7
2018-May-21 20:30N 29°22' W 094°48'3 5.0
2018-May-21 20:00N 29°24' W 094°49'7 7.2
2018-May-21 19:05N 29°30' W 094°52'0 7.2
2018-May-21 19:01N 29°31' W 094°53'4 7.1
2018-May-21 18:30N 29°34' W 094°55'4 7.4
2018-May-21 18:00N 29°37' W 094°57'4 7.7
2018-May-21 17:30N 29°40' W 094°59'5 6.7
2018-May-21 16:44N 29°44' W 095°03'2 0.0
2018-May-20 02:33N 29°43' W 095°01'1 6.6
2018-May-20 02:28N 29°42' W 095°01'4 6.8
2018-May-20 01:57N 29°40' W 094°58'3 7.4
2018-May-20 01:30N 29°36' W 094°57'4 7.7
2018-May-20 01:00N 29°33' W 094°55'25 3.8
2018-May-19 18:19N 29°34' W 094°25'2 4.7
2018-May-19 17:54N 29°36' W 094°24'2 2.3
2018-May-19 16:54N 29°36' W 094°22'2 5.3
2018-May-19 16:29N 29°37' W 094°20'2 5.0
2018-May-19 16:00N 29°38' W 094°17'3 5.2
2018-May-19 15:30N 29°40' W 094°15'3 5.5
2018-May-19 15:00N 29°41' W 094°12'2 4.7
2018-May-19 14:30N 29°42' W 094°09'3 5.4
2018-May-19 14:00N 29°43' W 094°07'2 4.7
2018-May-19 13:30N 29°45' W 094°05'3 6.4
2018-May-19 13:00N 29°47' W 094°02'3 6.1
2018-May-19 12:30N 29°49' W 093°59'1 1.6
2018-May-19 11:59N 29°49' W 093°58'0 0.0
2018-May-19 11:29N 29°49' W 093°58'0 0.1
2018-May-19 10:59N 29°49' W 093°58'0 0.1
2018-May-19 10:29N 29°49' W 093°58'0 0.1
2018-May-19 09:59N 29°49' W 093°58'0 0.8
2018-May-19 09:30N 29°49' W 093°58'3 6.3
2018-May-19 09:00N 29°52' W 093°56'4 7.1
2018-May-19 08:30N 29°55' W 093°53'4 7.1
2018-May-19 08:00N 29°58' W 093°51'3 5.2
2018-May-19 07:30N 29°59' W 093°49'3 6.3
2018-May-19 07:00N 30°01' W 093°46'3 5.7
2018-May-19 06:26N 30°03' W 093°43'3 5.5
2018-May-19 05:58N 30°04' W 093°40'5 5.0
2018-May-19 04:53N 30°04' W 093°34'2 4.6
2018-May-19 04:30N 30°04' W 093°32'2 4.6
2018-May-19 03:59N 30°04' W 093°29'2 4.2
2018-May-19 03:30N 30°04' W 093°27'2 4.7
2018-May-19 03:00N 30°04' W 093°24'2 4.8
2018-May-19 02:30N 30°04' W 093°21'2 4.2
2018-May-19 02:00N 30°05' W 093°20'1 2.3
2018-May-19 01:30N 30°06' W 093°19'1 2.7
2018-May-19 01:00N 30°05' W 093°18'1 1.9
2018-May-19 00:30N 30°05' W 093°17'0 0.6
2018-May-19 00:01N 30°05' W 093°16'1 2.3
2018-May-18 23:30N 30°04' W 093°16'2 3.9
2018-May-18 23:00N 30°02' W 093°15'2 3.9
2018-May-18 22:30N 30°00' W 093°14'2 4.5
2018-May-18 21:58N 29°58' W 093°12'2 4.5
2018-May-18 21:30N 29°57' W 093°10'2 4.2
2018-May-18 21:00N 29°56' W 093°08'2 4.4
2018-May-18 20:30N 29°56' W 093°05'45 4.4
2018-May-18 10:20N 29°48' W 092°14'2 4.2
2018-May-18 09:52N 29°47' W 092°12'1 0.7
2018-May-18 08:08N 29°47' W 092°11'0 0.0
2018-May-18 07:56N 29°47' W 092°11'1 0.5
2018-May-18 06:54N 29°47' W 092°10'2 3.8
2018-May-18 06:30N 29°47' W 092°09'8 4.9
2018-May-18 04:58N 29°50' W 092°01'63 4.0
2018-May-17 13:17N 29°32' W 090°50'1 5.2
2018-May-17 13:00N 29°32' W 090°49'2 4.8
2018-May-17 12:30N 29°32' W 090°46'2 4.4
2018-May-17 12:00N 29°34' W 090°44'2 3.3
2018-May-17 11:30N 29°35' W 090°43'2 3.8
2018-May-17 11:00N 29°37' W 090°42'2 4.3
2018-May-17 10:29N 29°36' W 090°40'2 4.5
2018-May-17 09:59N 29°35' W 090°38'2 3.9
2018-May-17 09:30N 29°35' W 090°35'2 4.5
2018-May-17 08:59N 29°34' W 090°33'6 4.8
2018-May-17 07:45N 29°33' W 090°26'1 4.8
2018-May-17 07:28N 29°33' W 090°25'2 3.4
2018-May-17 06:49N 29°35' W 090°23'  

Dump ship's entire track history